createdAt,value
2023-01-01T00:01:26.217Z,7.65
2023-01-01T00:03:57.739Z,8.07
2023-01-01T00:06:25.202Z,6.88
2023-01-01T00:09:14.920Z,4.72
2023-01-01T00:11:41.871Z,3.75
2023-01-01T00:14:12.225Z,6.13
2023-01-01T00:16:39.824Z,5.88
2023-01-01T00:19:07.094Z,4.20
2023-01-01T00:21:35.245Z,3.72
2023-01-01T00:24:02.255Z,4.63
2023-01-01T00:26:34.487Z,3.33
2023-01-01T00:29:02.502Z,4.22
2023-01-01T00:31:29.374Z,3.80
2023-01-01T00:33:56.704Z,3.80
2023-01-01T00:36:25.909Z,3.13
2023-01-01T00:38:53.318Z,3.30
2023-01-01T00:41:20.595Z,2.40
2023-01-01T00:43:47.647Z,4.13
2023-01-01T00:46:15.179Z,3.63
2023-01-01T00:48:42.248Z,3.22
2023-01-01T00:51:09.304Z,2.97
2023-01-01T00:53:39.177Z,3.40
2023-01-01T00:56:06.086Z,3.40
2023-01-01T00:58:33.476Z,3.08
2023-01-01T01:01:00.607Z,3.70
2023-01-01T01:03:30.827Z,2.90
2023-01-01T01:06:10.308Z,3.53
2023-01-01T01:08:39.498Z,3.10
2023-01-01T01:11:09.049Z,3.85
2023-01-01T01:13:36.230Z,3.10
2023-01-01T01:16:12.548Z,2.90
2023-01-01T01:18:39.544Z,3.55
2023-01-01T01:21:06.206Z,3.50
2023-01-01T01:23:33.501Z,3.70
2023-01-01T01:26:18.940Z,3.00
2023-01-01T01:28:49.819Z,2.85
2023-01-01T01:31:18.404Z,2.72
2023-01-01T01:33:46.602Z,2.78
2023-01-01T01:36:15.443Z,2.67
2023-01-01T01:38:42.607Z,3.05
2023-01-01T01:41:25.680Z,3.30
2023-01-01T01:44:03.728Z,2.60
2023-01-01T01:46:41.765Z,3.20
2023-01-01T01:49:18.423Z,3.13
2023-01-01T01:51:46.265Z,2.85
2023-01-01T01:54:22.658Z,3.78
2023-01-01T01:57:08.028Z,2.60
2023-01-01T01:59:41.074Z,2.78
2023-01-01T02:02:14.775Z,3.08
2023-01-01T02:04:42.905Z,2.70
2023-01-01T02:07:09.849Z,2.83
2023-01-01T02:09:37.183Z,2.88
2023-01-01T02:12:03.976Z,2.88
2023-01-01T02:14:30.668Z,2.60
2023-01-01T02:17:07.518Z,3.17
2023-01-01T02:19:58.505Z,2.92
2023-01-01T02:22:37.989Z,3.10
2023-01-01T02:25:32.192Z,2.95
2023-01-01T02:28:16.000Z,2.70
2023-01-01T02:30:45.698Z,2.78
2023-01-01T02:33:17.168Z,2.60
2023-01-01T02:36:02.023Z,3.25
2023-01-01T02:38:43.020Z,2.97
2023-01-01T02:41:12.274Z,3.15
2023-01-01T02:43:40.392Z,3.83
2023-01-01T02:46:09.106Z,3.03
2023-01-01T02:48:42.238Z,3.33
2023-01-01T02:51:27.317Z,2.90
2023-01-01T02:54:08.760Z,2.88
2023-01-01T02:56:56.262Z,3.55
2023-01-01T02:59:47.395Z,2.90
2023-01-01T03:02:16.894Z,2.97
2023-01-01T03:05:07.676Z,2.95
2023-01-01T03:07:52.907Z,3.05
2023-01-01T03:10:42.337Z,3.38
2023-01-01T03:13:21.860Z,3.60
2023-01-01T03:16:00.554Z,2.78
2023-01-01T03:18:37.274Z,2.75
2023-01-01T03:21:07.071Z,2.90
2023-01-01T03:23:37.293Z,3.03
2023-01-01T03:26:09.502Z,2.90
2023-01-01T03:28:42.329Z,2.85
2023-01-01T03:31:09.840Z,2.50
2023-01-01T03:33:45.193Z,3.00
2023-01-01T03:36:30.665Z,2.72
2023-01-01T03:39:09.667Z,3.08
2023-01-01T03:41:58.121Z,2.95
2023-01-01T03:44:45.512Z,2.35
2023-01-01T03:47:12.567Z,2.67
2023-01-01T03:49:39.536Z,2.63
2023-01-01T03:52:21.882Z,2.45
2023-01-01T03:55:19.488Z,2.25
2023-01-01T03:58:16.797Z,2.47
2023-01-01T04:00:57.824Z,2.30
2023-01-01T04:03:27.431Z,2.67
2023-01-01T04:05:54.572Z,2.25
2023-01-01T04:08:21.809Z,2.20
2023-01-01T04:10:56.601Z,1.83
2023-01-01T04:13:23.860Z,2.50
2023-01-01T04:15:50.929Z,2.35
2023-01-01T04:18:17.691Z,2.20
2023-01-01T04:20:44.360Z,2.20
2023-01-01T04:23:10.975Z,2.83
2023-01-01T04:25:37.614Z,2.05
2023-01-01T04:28:04.498Z,2.30
2023-01-01T04:30:31.167Z,2.30
2023-01-01T04:32:57.963Z,2.47
2023-01-01T04:35:24.664Z,2.20
2023-01-01T04:37:51.284Z,2.00
2023-01-01T04:40:18.154Z,2.53
2023-01-01T04:42:44.824Z,2.00
2023-01-01T04:45:14.843Z,2.13
2023-01-01T04:47:41.677Z,2.05
2023-01-01T04:50:08.664Z,2.28
2023-01-01T04:52:35.364Z,1.77
2023-01-01T04:55:02.005Z,2.53
2023-01-01T04:57:31.695Z,1.77
2023-01-01T04:59:58.404Z,2.13
2023-01-01T05:02:25.754Z,2.38
2023-01-01T05:04:52.493Z,2.08
2023-01-01T05:07:19.117Z,2.42
2023-01-01T05:09:45.762Z,2.83
2023-01-01T05:12:12.379Z,2.00
2023-01-01T05:14:39.045Z,1.83
2023-01-01T05:17:05.673Z,2.08
2023-01-01T05:19:32.379Z,2.08
2023-01-01T05:21:59.101Z,2.10
2023-01-01T05:24:25.839Z,2.25
2023-01-01T05:26:53.182Z,2.13
2023-01-01T05:29:19.919Z,2.17
2023-01-01T05:31:46.705Z,1.70
2023-01-01T05:34:13.615Z,1.73
2023-01-01T05:36:40.357Z,2.00
2023-01-01T05:39:12.102Z,1.85
2023-01-01T05:41:39.891Z,2.03
2023-01-01T05:44:07.260Z,1.77
2023-01-01T05:46:34.263Z,1.80
2023-01-01T05:49:01.084Z,1.90
2023-01-01T05:51:29.418Z,1.90
2023-01-01T05:53:57.212Z,2.00
2023-01-01T05:56:25.750Z,2.15
2023-01-01T05:58:52.442Z,1.90
2023-01-01T06:01:22.435Z,1.90
2023-01-01T06:03:50.205Z,1.67
2023-01-01T06:06:22.289Z,2.20
2023-01-01T06:08:53.541Z,1.90
2023-01-01T06:11:20.668Z,1.88
2023-01-01T06:13:47.566Z,1.80
2023-01-01T06:16:14.772Z,1.70
2023-01-01T06:18:41.511Z,1.63
2023-01-01T06:21:13.996Z,1.75
2023-01-01T06:23:40.967Z,1.80
2023-01-01T06:26:13.489Z,1.80
2023-01-01T06:28:41.225Z,1.70
2023-01-01T06:31:11.647Z,2.05
2023-01-01T06:33:39.289Z,1.77
2023-01-01T06:36:08.705Z,1.55
2023-01-01T06:38:37.824Z,1.95
2023-01-01T06:41:10.817Z,2.03
2023-01-01T06:43:38.243Z,1.75
2023-01-01T06:46:17.488Z,2.55
2023-01-01T06:48:45.493Z,2.15
2023-01-01T06:51:15.788Z,1.85
2023-01-01T06:53:42.939Z,1.50
2023-01-01T06:56:10.058Z,2.03
2023-01-01T06:58:36.921Z,1.77
2023-01-01T07:01:09.432Z,2.10
2023-01-01T07:03:37.307Z,1.98
2023-01-01T07:06:04.845Z,2.00
2023-01-01T07:08:31.469Z,2.00
2023-01-01T07:10:58.225Z,1.92
2023-01-01T07:13:25.924Z,1.88
2023-01-01T07:15:53.156Z,1.98
2023-01-01T07:18:21.054Z,2.00
2023-01-01T07:20:56.711Z,1.80
2023-01-01T07:23:24.124Z,1.70
2023-01-01T07:25:52.314Z,1.75
2023-01-01T07:28:19.474Z,2.22
2023-01-01T07:30:46.238Z,1.90
2023-01-01T07:33:15.137Z,2.20
2023-01-01T07:35:42.038Z,2.13
2023-01-01T07:38:08.976Z,1.83
2023-01-01T07:40:35.603Z,1.63
2023-01-01T07:43:02.948Z,2.00
2023-01-01T07:45:29.835Z,1.98
2023-01-01T07:47:57.878Z,2.30
2023-01-01T07:50:26.295Z,2.40
2023-01-01T07:52:52.962Z,2.10
2023-01-01T07:55:20.845Z,2.10
2023-01-01T07:57:48.393Z,2.22
2023-01-01T08:00:17.850Z,2.42
2023-01-01T08:02:45.061Z,2.13
2023-01-01T08:05:11.946Z,1.92
2023-01-01T08:07:39.336Z,1.70
2023-01-01T08:10:07.339Z,1.80
2023-01-01T08:12:34.124Z,1.80
2023-01-01T08:15:00.766Z,2.35
2023-01-01T08:17:27.397Z,1.88
2023-01-01T08:19:54.135Z,2.10
2023-01-01T08:22:20.847Z,2.10
2023-01-01T08:24:47.949Z,1.75
2023-01-01T08:27:15.826Z,1.73
2023-01-01T08:29:45.869Z,2.42
2023-01-01T08:32:12.860Z,2.25
2023-01-01T08:34:39.499Z,2.20
2023-01-01T08:37:07.168Z,1.77
2023-01-01T08:39:33.895Z,2.00
2023-01-01T08:42:00.479Z,1.90
2023-01-01T08:44:27.078Z,1.95
2023-01-01T08:46:53.903Z,1.90
2023-01-01T08:49:20.550Z,1.90
2023-01-01T08:51:47.182Z,1.92
2023-01-01T08:54:13.863Z,1.80
2023-01-01T08:56:40.465Z,2.35
2023-01-01T08:59:07.204Z,2.15
2023-01-01T09:01:33.973Z,1.80
2023-01-01T09:04:00.665Z,2.10
2023-01-01T09:06:27.308Z,1.73
2023-01-01T09:08:54.023Z,2.15
2023-01-01T09:11:28.319Z,1.92
2023-01-01T09:13:55.428Z,1.92
2023-01-01T09:16:23.070Z,1.90
2023-01-01T09:18:50.179Z,2.35
2023-01-01T09:21:17.105Z,2.60
2023-01-01T09:23:43.767Z,2.10
2023-01-01T09:26:10.924Z,1.90
2023-01-01T09:28:38.429Z,2.08
2023-01-01T09:31:08.861Z,2.03
2023-01-01T09:33:35.669Z,1.80
2023-01-01T09:36:25.816Z,1.83
2023-01-01T09:38:53.920Z,2.08
2023-01-01T09:41:50.693Z,2.30
2023-01-01T09:44:32.155Z,2.00
2023-01-01T09:47:02.340Z,2.00
2023-01-01T09:49:41.566Z,1.92
2023-01-01T09:52:13.668Z,2.10
2023-01-01T09:54:47.672Z,1.80
2023-01-01T09:57:19.830Z,1.92
2023-01-01T09:59:47.044Z,1.98
2023-01-01T10:02:32.213Z,1.98
2023-01-01T10:05:34.248Z,2.03
2023-01-01T10:08:30.871Z,1.90
2023-01-01T10:11:15.509Z,2.15
2023-01-01T10:13:46.170Z,2.05
2023-01-01T10:16:13.206Z,2.10
2023-01-01T10:18:41.838Z,2.25
2023-01-01T10:21:17.925Z,2.17
2023-01-01T10:23:52.171Z,2.33
2023-01-01T10:26:23.609Z,2.08
2023-01-01T10:29:19.184Z,2.80
2023-01-01T10:31:47.326Z,2.15
2023-01-01T10:34:22.394Z,2.30
2023-01-01T10:36:54.357Z,2.20
2023-01-01T10:41:48.113Z,1.98
2023-01-01T10:44:26.093Z,2.00
2023-01-01T10:46:57.664Z,1.80
2023-01-01T10:49:24.470Z,2.20
2023-01-01T10:51:53.708Z,2.40
2023-01-01T10:54:33.144Z,2.35
2023-01-01T10:57:20.801Z,2.10
2023-01-01T10:59:53.940Z,2.40
2023-01-01T11:02:22.622Z,2.70
2023-01-01T11:04:51.286Z,2.15
2023-01-01T11:07:30.337Z,2.60
2023-01-01T11:10:04.003Z,1.92
2023-01-01T11:15:42.518Z,1.80
2023-01-01T11:18:20.678Z,2.30
2023-01-01T11:20:58.697Z,2.30
2023-01-01T11:23:36.329Z,2.60
2023-01-01T11:26:07.272Z,2.08
2023-01-01T11:28:35.620Z,2.10
2023-01-01T11:31:10.985Z,2.45
2023-01-01T11:33:45.808Z,2.03
2023-01-01T11:36:20.300Z,1.85
2023-01-01T11:39:04.197Z,2.40
2023-01-01T11:41:48.030Z,2.13
2023-01-01T11:44:35.936Z,2.10
2023-01-01T11:47:04.257Z,2.40
2023-01-01T11:49:31.409Z,1.88
2023-01-01T11:51:58.759Z,1.88
2023-01-01T11:54:33.008Z,2.40
2023-01-01T11:57:14.406Z,1.77
2023-01-01T11:59:49.301Z,2.20
2023-01-01T12:02:24.409Z,2.67
2023-01-01T12:05:00.903Z,2.03
2023-01-01T12:07:36.693Z,2.33
2023-01-01T12:10:25.487Z,1.95
2023-01-01T12:13:15.078Z,1.75
2023-01-01T12:15:55.718Z,1.80
2023-01-01T12:18:27.692Z,2.60
2023-01-01T12:23:41.357Z,2.35
2023-01-01T12:26:37.661Z,2.03
2023-01-01T12:29:38.153Z,2.00
2023-01-01T12:32:33.112Z,2.17
2023-01-01T12:35:03.316Z,2.10
2023-01-01T12:38:00.555Z,2.38
2023-01-01T12:40:38.614Z,3.13
2023-01-01T12:43:49.430Z,2.63
2023-01-01T12:46:41.070Z,2.20
2023-01-01T12:49:43.641Z,2.47
2023-01-01T12:52:26.560Z,2.88
2023-01-01T12:55:03.754Z,2.50
2023-01-01T12:57:51.376Z,2.90
2023-01-01T13:00:21.216Z,3.38
2023-01-01T13:02:55.536Z,3.00
2023-01-01T13:05:35.132Z,2.22
2023-01-01T13:08:04.739Z,3.53
2023-01-01T13:10:35.592Z,4.32
2023-01-01T13:13:03.211Z,3.15
2023-01-01T13:15:39.487Z,2.83
2023-01-01T13:18:15.357Z,2.28
2023-01-01T13:20:46.763Z,2.78
2023-01-01T13:23:31.672Z,2.28
2023-01-01T13:26:22.963Z,2.53
2023-01-01T13:28:58.739Z,2.57
2023-01-01T13:31:40.927Z,2.20
2023-01-01T13:34:42.466Z,2.50
2023-01-01T13:37:14.811Z,2.37
2023-01-01T13:40:24.164Z,2.00
2023-01-01T13:42:59.159Z,2.40
2023-01-01T13:48:48.923Z,2.40
2023-01-01T13:52:07.041Z,1.90
2023-01-01T13:55:07.360Z,2.75
2023-01-01T13:57:59.791Z,1.75
2023-01-01T14:00:35.836Z,2.90
2023-01-01T14:03:16.563Z,1.90
2023-01-01T14:05:45.974Z,2.30
2023-01-01T14:08:33.033Z,2.40
2023-01-01T14:11:01.896Z,2.50
2023-01-01T14:13:30.289Z,2.78
2023-01-01T14:15:58.609Z,2.42
2023-01-01T14:18:42.037Z,2.22
2023-01-01T14:21:11.842Z,2.20
2023-01-01T14:23:49.844Z,2.45
2023-01-01T14:26:20.968Z,2.33
2023-01-01T14:28:48.099Z,2.17
2023-01-01T14:31:20.907Z,2.13
2023-01-01T14:33:47.898Z,2.40
2023-01-01T14:36:22.414Z,2.30
2023-01-01T14:38:52.598Z,2.67
2023-01-01T14:41:37.717Z,3.30
2023-01-01T14:44:16.662Z,3.22
2023-01-01T14:46:48.975Z,3.65
2023-01-01T14:49:32.481Z,3.05
2023-01-01T14:52:23.557Z,2.60
2023-01-01T14:54:51.224Z,2.70
2023-01-01T14:57:26.732Z,2.58
2023-01-01T14:59:54.638Z,2.60
2023-01-01T15:02:26.621Z,3.10
2023-01-01T15:04:53.388Z,3.20
2023-01-01T15:07:28.534Z,2.95
2023-01-01T15:10:03.139Z,3.58
2023-01-01T15:12:33.027Z,3.72
2023-01-01T15:14:59.797Z,3.40
2023-01-01T15:17:27.401Z,4.00
2023-01-01T15:20:03.793Z,3.75
2023-01-01T15:22:34.668Z,4.13
2023-01-01T15:25:05.118Z,3.35
2023-01-01T15:27:36.866Z,2.90
2023-01-01T15:30:11.636Z,2.80
2023-01-01T15:32:40.675Z,3.30
2023-01-01T15:35:31.449Z,3.40
2023-01-01T15:38:18.852Z,2.70
2023-01-01T15:40:51.091Z,4.07
2023-01-01T15:43:29.526Z,3.13
2023-01-01T15:46:23.341Z,3.35
2023-01-01T15:48:53.152Z,2.60
2023-01-01T15:51:23.762Z,2.90
2023-01-01T15:53:57.158Z,3.00
2023-01-01T15:56:27.085Z,3.00
2023-01-01T15:59:09.814Z,2.55
2023-01-01T16:01:39.762Z,3.10
2023-01-01T16:04:28.662Z,3.15
2023-01-01T16:06:57.861Z,3.15
2023-01-01T16:09:24.772Z,3.63
2023-01-01T16:11:56.950Z,2.97
2023-01-01T16:14:24.350Z,3.40
2023-01-01T16:16:58.417Z,3.63
2023-01-01T16:19:25.495Z,3.53
2023-01-01T16:21:52.267Z,3.42
2023-01-01T16:24:20.029Z,2.55
2023-01-01T16:26:47.486Z,3.20
2023-01-01T16:29:15.689Z,2.97
2023-01-01T16:31:43.074Z,2.50
2023-01-01T16:34:16.222Z,2.58
2023-01-01T16:36:44.273Z,2.55
2023-01-01T16:39:11.533Z,2.05
2023-01-01T16:41:42.075Z,2.85
2023-01-01T16:44:15.526Z,2.20
2023-01-01T16:46:42.721Z,2.60
2023-01-01T16:49:09.518Z,2.30
2023-01-01T16:51:40.627Z,4.20
2023-01-01T16:54:10.128Z,3.17
2023-01-01T16:56:36.801Z,3.10
2023-01-01T16:59:03.871Z,4.15
2023-01-01T17:01:31.077Z,3.90
2023-01-01T17:03:58.136Z,3.30
2023-01-01T17:06:24.796Z,3.67
2023-01-01T17:08:51.510Z,3.65
2023-01-01T17:11:18.936Z,4.38
2023-01-01T17:13:47.670Z,4.30
2023-01-01T17:16:21.378Z,4.90
2023-01-01T17:19:14.505Z,4.68
2023-01-01T17:21:39.892Z,4.50
2023-01-01T17:24:07.158Z,4.65
2023-01-01T17:26:33.882Z,4.63
2023-01-01T17:29:02.935Z,4.25
2023-01-01T17:31:30.120Z,4.88
2023-01-01T17:33:57.063Z,5.18
2023-01-01T17:36:24.410Z,4.28
2023-01-01T17:38:51.078Z,3.63
2023-01-01T17:41:18.197Z,3.55
2023-01-01T17:43:47.735Z,3.95
2023-01-01T17:46:15.955Z,3.53
2023-01-01T17:48:43.909Z,4.30
2023-01-01T17:51:12.047Z,4.30
2023-01-01T17:53:39.890Z,3.65
2023-01-01T17:56:07.684Z,3.63
2023-01-01T17:58:35.719Z,3.95
2023-01-01T18:01:23.870Z,3.47
2023-01-01T18:04:03.142Z,3.53
2023-01-01T18:06:31.674Z,3.83
2023-01-01T18:09:00.698Z,3.55
2023-01-01T18:11:29.093Z,3.65
2023-01-01T18:14:00.813Z,4.25
2023-01-01T18:16:28.423Z,3.60
2023-01-01T18:18:56.004Z,3.75
2023-01-01T18:21:23.779Z,4.60
2023-01-01T18:23:52.568Z,3.85
2023-01-01T18:26:19.892Z,3.40
2023-01-01T18:28:58.598Z,3.58
2023-01-01T18:31:27.361Z,3.40
2023-01-01T18:33:54.716Z,4.03
2023-01-01T18:36:24.574Z,3.33
2023-01-01T18:39:23.026Z,3.45
2023-01-01T18:42:00.832Z,3.47
2023-01-01T18:44:30.736Z,3.70
2023-01-01T18:47:06.366Z,3.53
2023-01-01T18:49:35.167Z,3.78
2023-01-01T18:52:01.788Z,3.95
2023-01-01T18:54:29.895Z,4.32
2023-01-01T18:57:22.317Z,5.13
2023-01-01T18:59:55.385Z,4.35
2023-01-01T19:02:39.231Z,4.93
2023-01-01T19:05:26.943Z,4.32
2023-01-01T19:08:09.805Z,4.10
2023-01-01T19:10:42.727Z,4.30
2023-01-01T19:13:18.893Z,4.20
2023-01-01T19:15:54.288Z,4.38
2023-01-01T19:18:28.224Z,4.30
2023-01-01T19:21:00.176Z,4.47
2023-01-01T19:25:55.428Z,6.25
2023-01-01T19:28:27.797Z,6.13
2023-01-01T19:30:54.552Z,5.07
2023-01-01T19:33:21.188Z,5.03
2023-01-01T19:35:47.897Z,4.53
2023-01-01T19:38:14.569Z,4.85
2023-01-01T19:40:41.282Z,3.83
2023-01-01T19:43:08.032Z,4.85
2023-01-01T19:45:34.809Z,5.07
2023-01-01T19:48:06.925Z,4.35
2023-01-01T19:50:33.698Z,4.40
2023-01-01T19:53:00.524Z,5.00
2023-01-01T19:55:27.292Z,4.35
2023-01-01T19:57:54.153Z,5.28
2023-01-01T20:00:20.882Z,4.38
2023-01-01T20:02:48.340Z,4.55
2023-01-01T20:05:15.522Z,4.32
2023-01-01T20:07:42.356Z,4.22
2023-01-01T20:10:09.569Z,4.90
2023-01-01T20:12:36.261Z,4.95
2023-01-01T20:15:03.167Z,5.07
2023-01-01T20:17:30.742Z,4.30
2023-01-01T20:19:58.408Z,4.05
2023-01-01T20:22:25.376Z,4.15
2023-01-01T20:24:52.183Z,4.63
2023-01-01T20:27:19.037Z,4.38
2023-01-01T20:29:45.863Z,4.18
2023-01-01T20:32:13.300Z,4.25
2023-01-01T20:34:40.580Z,4.15
2023-01-01T20:37:26.434Z,4.03
2023-01-01T20:39:53.399Z,4.15
2023-01-01T20:42:20.483Z,4.68
2023-01-01T20:44:47.172Z,4.10
2023-01-01T20:47:14.499Z,4.13
2023-01-01T20:49:42.264Z,4.20
2023-01-01T20:52:09.632Z,4.53
2023-01-01T20:54:36.557Z,4.00
2023-01-01T20:57:03.443Z,3.42
2023-01-01T20:59:36.429Z,3.97
2023-01-01T21:02:06.081Z,4.35
2023-01-01T21:04:33.263Z,3.22
2023-01-01T21:06:59.953Z,3.85
2023-01-01T21:09:26.656Z,3.55
2023-01-01T21:11:53.341Z,3.60
2023-01-01T21:14:23.948Z,3.92
2023-01-01T21:16:51.754Z,4.88
2023-01-01T21:19:26.040Z,6.32
2023-01-01T21:21:55.353Z,4.50
2023-01-01T21:24:37.592Z,4.45
2023-01-01T21:27:23.923Z,4.43
2023-01-01T21:29:53.118Z,3.78
2023-01-01T21:32:26.800Z,4.50
2023-01-01T21:34:55.046Z,3.60
2023-01-01T21:37:47.243Z,3.00
2023-01-01T21:40:35.614Z,3.97
2023-01-01T21:43:02.965Z,3.67
2023-01-01T21:45:32.135Z,4.30
2023-01-01T21:48:16.410Z,4.07
2023-01-01T21:50:45.967Z,4.53
2023-01-01T21:53:24.129Z,4.70
2023-01-01T21:56:00.133Z,4.38
2023-01-01T21:58:51.508Z,4.68
2023-01-01T22:01:24.134Z,3.80
2023-01-01T22:04:09.473Z,4.07
2023-01-01T22:06:43.141Z,4.28
2023-01-01T22:09:16.431Z,3.90
2023-01-01T22:11:44.563Z,4.53
2023-01-01T22:14:16.126Z,3.67
2023-01-01T22:16:44.140Z,3.90
2023-01-01T22:19:19.234Z,4.63
2023-01-01T22:21:47.861Z,5.55
2023-01-01T22:24:26.648Z,5.10
2023-01-01T22:26:53.414Z,4.97
2023-01-01T22:29:24.807Z,4.03
2023-01-01T22:32:20.825Z,5.20
2023-01-01T22:34:48.524Z,4.75
2023-01-01T22:37:21.382Z,5.25
2023-01-01T22:39:49.046Z,4.50
2023-01-01T22:42:18.964Z,4.10
2023-01-01T22:44:58.133Z,3.78
2023-01-01T22:47:33.013Z,3.80
2023-01-01T22:50:03.446Z,4.88
2023-01-01T22:52:30.172Z,3.72
2023-01-01T22:55:01.577Z,3.60
2023-01-01T22:57:31.450Z,3.92
2023-01-01T22:59:58.095Z,4.57
2023-01-01T23:02:24.791Z,4.10
2023-01-01T23:04:51.718Z,3.38
2023-01-01T23:07:18.477Z,4.30
2023-01-01T23:09:45.522Z,3.70
2023-01-01T23:12:12.289Z,4.47
2023-01-01T23:15:00.588Z,3.55
2023-01-01T23:17:27.175Z,3.50
2023-01-01T23:20:05.987Z,3.55
2023-01-01T23:22:37.004Z,4.32
2023-01-01T23:25:09.568Z,3.78
2023-01-01T23:27:40.377Z,3.83
2023-01-01T23:30:08.187Z,3.55
2023-01-01T23:32:35.850Z,3.70
2023-01-01T23:35:03.291Z,3.60
2023-01-01T23:37:30.078Z,3.50
2023-01-01T23:39:56.737Z,3.45
2023-01-01T23:42:23.421Z,4.05
2023-01-01T23:44:50.070Z,4.40
2023-01-01T23:47:17.412Z,3.38
2023-01-01T23:49:44.242Z,3.55
2023-01-01T23:52:11.013Z,3.42
2023-01-01T23:54:38.969Z,3.20
2023-01-01T23:57:05.680Z,3.17
2023-01-01T23:59:32.356Z,3.40
